Time;durP1;ratioP1;P1;durP2;ratioP2;P2;SDS_P1;SDS_P2;PMS_P1;PMS_P2;Temp;Humidity;BMP_temperature;BMP_pressure;BME280_temperature;BME280_humidity;BME280_pressure;Samples;Min_cycle;Max_cycle;Signal;HPM_P1;HPM_P2
2021/01/17 00:01:43;;;;;;;7.77;4.57;;;1.00;99.90;;;;;;5034767;28;20458;-56
2021/01/17 00:04:11;;;;;;;4.70;2.70;;;1.10;99.90;;;;;;5023776;28;20442;-50
2021/01/17 00:06:37;;;;;;;4.37;3.07;;;1.10;99.90;;;;;;5033477;28;20472;-52
2021/01/17 00:09:04;;;;;;;6.30;3.10;;;1.00;99.90;;;;;;5042310;28;20445;-51
2021/01/17 00:11:30;;;;;;;6.73;3.60;;;0.90;99.90;;;;;;5043033;28;20437;-50
2021/01/17 00:13:56;;;;;;;3.83;3.17;;;0.90;99.90;;;;;;5043254;28;20463;-50
2021/01/17 00:16:23;;;;;;;5.37;3.80;;;0.80;99.90;;;;;;5034976;28;20489;-50
2021/01/17 00:18:49;;;;;;;6.90;4.30;;;0.70;99.90;;;;;;5023290;28;20465;-51
2021/01/17 00:21:16;;;;;;;3.73;3.20;;;0.60;99.90;;;;;;5022745;28;20441;-50
2021/01/17 00:23:43;;;;;;;4.53;3.27;;;0.60;99.90;;;;;;5023304;28;20666;-49
2021/01/17 00:26:09;;;;;;;6.30;3.43;;;0.60;99.90;;;;;;5023432;28;20454;-51
2021/01/17 00:28:36;;;;;;;5.33;4.37;;;0.60;99.90;;;;;;5023602;28;20538;-49
2021/01/17 00:31:02;;;;;;;5.40;3.20;;;0.70;99.90;;;;;;5023257;28;20442;-50
2021/01/17 00:33:28;;;;;;;5.17;3.63;;;0.60;99.90;;;;;;5023716;28;20454;-51
2021/01/17 00:35:55;;;;;;;4.67;3.33;;;0.50;99.90;;;;;;5021146;28;20502;-53
2021/01/17 00:38:22;;;;;;;6.30;3.20;;;0.40;99.90;;;;;;5020439;28;20453;-50
2021/01/17 00:40:49;;;;;;;6.10;4.33;;;0.40;99.90;;;;;;5019703;28;20430;-51
2021/01/17 00:43:18;;;;;;;8.33;4.80;;;0.40;99.90;;;;;;5199802;23;20507;-55
2021/01/17 00:45:44;;;;;;;7.77;4.43;;;0.40;99.90;;;;;;5039857;28;20461;-54
2021/01/17 00:48:10;;;;;;;10.40;5.40;;;0.40;99.90;;;;;;5039747;28;20441;-53
2021/01/17 00:50:37;;;;;;;6.90;4.10;;;0.40;99.90;;;;;;5040030;28;20448;-52
2021/01/17 00:53:03;;;;;;;5.70;3.90;;;0.40;99.90;;;;;;5040308;28;20445;-53
2021/01/17 00:55:31;;;;;;;6.43;4.20;;;0.30;99.90;;;;;;5039554;28;20469;-51
2021/01/17 00:57:57;;;;;;;8.90;4.80;;;0.40;99.90;;;;;;5039352;28;20445;-54
2021/01/17 01:00:25;;;;;;;7.27;4.50;;;0.40;99.90;;;;;;5040180;28;20433;-52
2021/01/17 01:02:51;;;;;;;11.03;4.70;;;0.40;99.90;;;;;;5040098;28;20444;-51
2021/01/17 01:05:17;;;;;;;7.07;4.33;;;0.40;99.90;;;;;;5040266;28;20492;-54
2021/01/17 01:07:44;;;;;;;9.43;5.30;;;0.40;99.90;;;;;;5038815;28;20480;-51
2021/01/17 01:10:12;;;;;;;6.80;4.50;;;0.30;99.90;;;;;;5039536;28;20453;-56
2021/01/17 01:12:39;;;;;;;10.17;5.60;;;0.30;99.90;;;;;;5039959;28;20437;-51
2021/01/17 01:15:07;;;;;;;8.57;5.70;;;0.30;99.90;;;;;;5039853;28;20430;-53
2021/01/17 01:17:34;;;;;;;9.57;5.17;;;0.40;99.90;;;;;;5039054;28;20827;-54
2021/01/17 01:20:01;;;;;;;7.13;5.00;;;0.30;99.90;;;;;;5028089;28;20469;-53
2021/01/17 08:04:47;;;;;;;8.60;4.93;;;1.20;99.90;;;;;;5235408;23;20476;-52
2021/01/17 08:07:31;;;;;;;6.90;4.50;;;1.20;99.90;;;;;;5035077;28;20479;-47
2021/01/17 08:09:57;;;;;;;8.07;4.80;;;1.30;99.90;;;;;;5035780;28;20437;-49
2021/01/17 08:12:42;;;;;;;11.80;6.73;;;1.30;99.90;;;;;;5035611;28;20525;-51
2021/01/17 08:15:28;;;;;;;12.80;5.30;;;1.30;99.90;;;;;;5036253;28;20456;-52
2021/01/17 08:17:54;;;;;;;9.37;5.17;;;1.40;99.90;;;;;;5040608;28;20449;-49
2021/01/17 08:20:31;;;;;;;14.37;4.73;;;1.40;99.90;;;;;;5040110;28;20428;-48
2021/01/17 08:23:14;;;;;;;5.40;4.03;;;1.40;99.90;;;;;;5028285;28;20456;-51
2021/01/17 08:25:55;;;;;;;8.43;4.50;;;1.40;99.90;;;;;;5015861;28;20435;-48
2021/01/17 08:28:37;;;;;;;7.80;4.80;;;1.50;99.90;;;;;;5016855;28;20476;-47
2021/01/17 08:31:39;;;;;;;7.80;5.70;;;1.50;99.90;;;;;;5016218;28;20446;-46
2021/01/17 08:34:27;;;;;;;13.93;5.90;;;1.50;99.90;;;;;;5016004;28;20434;-45
2021/01/17 08:36:55;;;;;;;9.40;7.13;;;1.50;99.90;;;;;;5014762;28;20480;-49
2021/01/17 08:39:46;;;;;;;8.80;5.33;;;1.60;99.90;;;;;;5014231;28;20540;-51
2021/01/17 08:42:30;;;;;;;8.37;5.93;;;1.60;99.90;;;;;;5004820;28;20485;-45
2021/01/17 08:44:57;;;;;;;10.30;5.80;;;1.60;99.90;;;;;;5017519;28;20472;-42
2021/01/17 08:47:24;;;;;;;10.70;6.57;;;1.60;99.90;;;;;;5018599;28;20434;-45
2021/01/17 08:49:52;;;;;;;10.40;5.83;;;1.70;99.90;;;;;;5018391;28;20488;-49
2021/01/17 08:52:25;;;;;;;12.57;10.70;;;1.70;99.90;;;;;;5018525;28;20481;-46
2021/01/17 08:54:52;;;;;;;17.10;9.83;;;1.70;99.90;;;;;;5018567;28;20434;-45
2021/01/17 08:57:40;;;;;;;12.60;7.47;;;1.70;99.90;;;;;;5016794;28;20509;-47
2021/01/17 09:00:13;;;;;;;10.03;5.97;;;1.80;99.90;;;;;;5019516;28;20442;-50
2021/01/17 09:02:39;;;;;;;18.60;7.77;;;1.80;99.90;;;;;;5019363;28;20449;-48
2021/01/17 09:05:17;;;;;;;11.20;7.03;;;1.90;99.90;;;;;;4999822;28;20463;-47
2021/01/17 09:07:45;;;;;;;13.07;6.77;;;1.80;99.90;;;;;;4999591;28;20482;-51
2021/01/17 09:10:15;;;;;;;9.20;5.97;;;1.80;99.90;;;;;;4999943;28;20474;-49
2021/01/17 09:12:41;;;;;;;13.17;7.17;;;1.80;99.90;;;;;;4999825;28;20459;-48
2021/01/17 09:15:17;;;;;;;11.97;6.40;;;1.80;99.90;;;;;;4999367;28;20542;-47
2021/01/17 09:17:56;;;;;;;9.83;5.30;;;1.90;99.90;;;;;;4999408;28;20465;-48
2021/01/17 09:20:24;;;;;;;13.50;6.77;;;1.80;99.90;;;;;;5000139;28;20443;-48
2021/01/17 09:22:52;;;;;;;10.50;6.33;;;1.80;99.90;;;;;;5000313;28;20443;-52
2021/01/17 09:25:19;;;;;;;8.50;7.07;;;1.90;99.90;;;;;;5000483;28;20450;-51
2021/01/17 09:27:45;;;;;;;9.37;5.90;;;1.90;99.90;;;;;;5000441;28;20474;-51
2021/01/17 09:30:13;;;;;;;12.00;6.60;;;1.90;99.90;;;;;;5000719;28;20431;-52
2021/01/17 09:32:44;;;;;;;8.57;6.23;;;1.90;99.90;;;;;;5000655;28;20466;-52
2021/01/17 09:35:11;;;;;;;10.00;5.93;;;1.90;99.90;;;;;;5000246;28;20435;-53
2021/01/17 09:37:37;;;;;;;14.27;5.37;;;2.00;99.90;;;;;;4999316;28;20518;-48
2021/01/17 09:40:06;;;;;;;8.17;5.53;;;2.00;99.90;;;;;;4999187;28;20498;-48
2021/01/17 09:42:33;;;;;;;16.07;9.37;;;2.00;99.90;;;;;;4999418;28;20763;-44
2021/01/17 09:45:01;;;;;;;13.43;7.77;;;2.00;99.90;;;;;;4999760;28;20430;-47
2021/01/17 09:47:29;;;;;;;11.27;6.20;;;2.10;99.90;;;;;;5000166;28;20506;-47
2021/01/17 09:50:05;;;;;;;12.03;8.07;;;2.00;99.90;;;;;;4999998;28;20451;-47
2021/01/17 09:52:37;;;;;;;12.50;9.07;;;2.00;99.90;;;;;;4999480;28;20434;-54
2021/01/17 09:55:08;;;;;;;13.70;9.33;;;2.00;99.90;;;;;;4998989;28;20419;-49
2021/01/17 09:57:38;;;;;;;16.83;9.53;;;2.00;99.90;;;;;;4999088;28;20501;-48
2021/01/17 10:00:08;;;;;;;18.53;9.37;;;2.00;99.90;;;;;;4999258;28;20416;-48
2021/01/17 10:02:37;;;;;;;14.47;9.17;;;2.00;99.90;;;;;;4983800;28;20925;-44
2021/01/17 10:05:04;;;;;;;11.70;7.53;;;2.00;99.90;;;;;;4995327;28;20481;-44
2021/01/17 10:07:31;;;;;;;12.00;6.17;;;2.00;99.90;;;;;;4995380;28;20473;-49
2021/01/17 10:09:57;;;;;;;14.90;6.60;;;2.10;99.90;;;;;;4995181;28;20462;-46
2021/01/17 10:12:25;;;;;;;12.40;6.73;;;2.10;99.90;;;;;;4997305;28;20450;-47
2021/01/17 10:14:52;;;;;;;17.13;7.40;;;2.20;99.90;;;;;;5031299;28;20466;-47
2021/01/17 10:17:18;;;;;;;7.93;6.00;;;2.20;99.90;;;;;;5031378;28;20510;-41
2021/01/17 10:19:46;;;;;;;17.00;7.50;;;2.30;99.90;;;;;;5017440;28;20441;-44
2021/01/17 10:22:14;;;;;;;14.93;8.37;;;2.20;99.90;;;;;;5016730;28;20484;-42
2021/01/17 10:24:42;;;;;;;15.67;8.00;;;2.20;99.90;;;;;;5022463;28;20917;-44
2021/01/17 10:27:09;;;;;;;16.33;8.50;;;2.20;99.90;;;;;;5006588;28;20449;-42
2021/01/17 10:29:38;;;;;;;9.33;6.40;;;2.20;99.90;;;;;;5006032;28;20517;-48
2021/01/17 10:32:07;;;;;;;13.60;7.70;;;2.20;99.90;;;;;;5005793;28;20478;-46
2021/01/17 10:34:39;;;;;;;15.53;8.30;;;2.20;99.90;;;;;;5006596;28;20477;-42
2021/01/17 10:37:08;;;;;;;10.63;7.80;;;2.20;99.90;;;;;;5010258;28;20493;-44
2021/01/17 10:39:39;;;;;;;19.30;7.70;;;2.20;99.90;;;;;;5016894;28;20432;-46
2021/01/17 10:42:12;;;;;;;11.60;7.50;;;2.20;99.90;;;;;;5018131;28;20434;-45
2021/01/17 10:44:50;;;;;;;20.13;8.00;;;2.20;99.90;;;;;;5018078;28;20407;-44
2021/01/17 11:05:47;;;;;;;17.30;9.00;;;3.30;99.90;;;;;;5437353;23;20510;-44
2021/01/17 11:08:13;;;;;;;15.67;8.20;;;3.80;99.90;;;;;;4981284;28;20519;-45
2021/01/17 11:10:40;;;;;;;14.83;7.27;;;3.70;99.90;;;;;;4973266;28;20447;-45
2021/01/17 11:13:15;;;;;;;14.43;8.20;;;3.50;99.90;;;;;;4963730;29;20459;-45
2021/01/17 11:15:42;;;;;;;17.50;8.23;;;3.40;99.90;;;;;;4964191;29;20440;-42
2021/01/17 11:18:09;;;;;;;19.00;9.17;;;3.20;99.90;;;;;;4964307;29;20619;-48
2021/01/17 11:20:36;;;;;;;27.10;11.20;;;3.10;99.90;;;;;;4964010;28;20447;-45
2021/01/17 11:23:04;;;;;;;12.60;6.00;;;2.90;99.90;;;;;;4964994;29;20451;-42
2021/01/17 11:25:32;;;;;;;17.67;7.53;;;2.80;99.90;;;;;;4965614;29;20456;-42
2021/01/17 11:28:00;;;;;;;12.50;6.70;;;2.70;99.90;;;;;;4984767;28;20453;-43
2021/01/17 11:30:27;;;;;;;26.17;10.40;;;2.50;99.90;;;;;;4986739;28;20801;-44
2021/01/17 11:33:09;;;;;;;23.23;8.50;;;2.40;99.90;;;;;;4985831;28;20490;-45
2021/01/17 11:35:37;;;;;;;18.83;9.07;;;2.50;99.90;;;;;;4986341;28;20439;-48
2021/01/17 11:38:05;;;;;;;16.77;8.30;;;2.50;99.90;;;;;;4977053;28;20514;-42
2021/01/17 11:40:32;;;;;;;16.73;8.77;;;2.50;99.90;;;;;;4986157;28;20495;-41
2021/01/17 11:43:09;;;;;;;15.00;8.27;;;2.50;99.90;;;;;;4985102;28;20545;-42
2021/01/17 11:45:43;;;;;;;28.40;9.20;;;2.50;99.90;;;;;;4986445;28;20439;-45
2021/01/17 11:48:10;;;;;;;17.47;7.70;;;2.50;99.90;;;;;;4984734;28;20435;-43
2021/01/17 11:50:43;;;;;;;16.80;7.57;;;2.50;99.90;;;;;;4984396;28;20446;-48
2021/01/17 11:53:11;;;;;;;16.30;8.90;;;2.50;99.90;;;;;;4984413;28;20462;-45
2021/01/17 11:55:37;;;;;;;12.40;6.50;;;2.60;99.90;;;;;;4984455;28;20457;-42
2021/01/17 11:58:10;;;;;;;17.47;7.47;;;2.60;99.90;;;;;;4984522;28;20522;-46
2021/01/17 12:00:54;;;;;;;15.97;9.33;;;2.60;99.90;;;;;;4984786;28;20771;-43
2021/01/17 12:03:40;;;;;;;19.77;7.47;;;2.50;99.90;;;;;;4975395;28;20447;-49
2021/01/17 12:06:11;;;;;;;14.43;8.20;;;2.60;99.90;;;;;;4965694;29;20616;-47
2021/01/17 12:08:59;;;;;;;12.60;8.43;;;2.60;99.90;;;;;;4965388;29;20440;-43
2021/01/17 12:11:37;;;;;;;13.13;7.70;;;2.60;99.90;;;;;;4966226;29;20447;-46
2021/01/17 12:14:06;;;;;;;18.27;10.50;;;2.70;99.90;;;;;;4965799;29;20442;-44
2021/01/17 12:16:34;;;;;;;18.83;9.30;;;2.60;99.90;;;;;;4965288;29;20487;-45
2021/01/17 12:19:01;;;;;;;15.43;8.20;;;2.70;99.90;;;;;;4963480;29;20459;-45
2021/01/17 12:21:29;;;;;;;13.40;8.60;;;2.60;99.90;;;;;;4965184;29;20459;-45
2021/01/17 12:23:58;;;;;;;16.87;7.87;;;2.60;99.90;;;;;;4969061;28;20984;-46
2021/01/17 12:26:25;;;;;;;14.40;8.80;;;2.60;99.90;;;;;;4982932;28;20443;-46
2021/01/17 12:28:52;;;;;;;16.13;8.47;;;2.60;99.90;;;;;;4984440;28;20910;-45
2021/01/17 12:31:19;;;;;;;16.10;8.47;;;2.50;99.90;;;;;;4985304;28;20442;-43
2021/01/17 12:33:46;;;;;;;15.30;7.90;;;2.50;99.90;;;;;;4988966;28;20510;-50
2021/01/17 12:36:14;;;;;;;16.37;8.53;;;2.50;99.90;;;;;;4988552;28;20474;-41
2021/01/17 12:38:42;;;;;;;13.30;8.50;;;2.50;99.90;;;;;;4988212;28;20470;-46
2021/01/17 12:41:10;;;;;;;73.17;28.63;;;2.50;99.90;;;;;;4987651;28;20749;-42
2021/01/17 12:43:38;;;;;;;17.67;8.03;;;2.50;99.90;;;;;;4987648;28;20443;-45
2021/01/17 12:46:07;;;;;;;14.63;8.20;;;2.40;99.90;;;;;;4987951;28;20467;-45
2021/01/17 12:48:34;;;;;;;15.90;10.40;;;2.50;99.90;;;;;;4986519;28;20435;-48
2021/01/17 12:51:02;;;;;;;13.30;9.80;;;2.50;99.90;;;;;;4988194;28;20503;-46
2021/01/17 12:53:28;;;;;;;13.70;7.90;;;2.60;99.90;;;;;;4986993;28;20458;-46
2021/01/17 12:55:55;;;;;;;21.33;8.17;;;2.60;99.90;;;;;;4986346;28;20443;-43
2021/01/17 12:58:22;;;;;;;11.53;9.57;;;2.60;99.90;;;;;;4985532;28;20498;-45
2021/01/17 13:00:49;;;;;;;15.63;8.30;;;2.60;99.90;;;;;;4986317;28;20510;-44
2021/01/17 13:03:15;;;;;;;34.23;8.80;;;2.60;99.90;;;;;;4986921;28;20462;-44
2021/01/17 13:05:42;;;;;;;13.80;8.43;;;2.60;99.90;;;;;;4986560;28;20552;-43
2021/01/17 13:08:08;;;;;;;13.47;7.90;;;2.50;99.90;;;;;;4986666;28;20439;-49
2021/01/17 13:10:35;;;;;;;12.77;8.93;;;2.50;99.90;;;;;;4986512;28;20868;-44
2021/01/17 13:13:01;;;;;;;12.30;8.00;;;2.60;99.90;;;;;;4966639;29;20464;-43
2021/01/17 13:15:31;;;;;;;23.33;10.70;;;2.60;99.90;;;;;;4979511;28;20447;-43
2021/01/17 13:17:58;;;;;;;14.70;7.90;;;2.60;99.90;;;;;;4995510;28;20498;-47
2021/01/17 13:20:24;;;;;;;15.30;8.10;;;2.60;99.90;;;;;;4997664;28;20436;-48
2021/01/17 13:22:51;;;;;;;10.80;7.20;;;2.50;99.90;;;;;;4998237;28;20450;-46
2021/01/17 13:25:19;;;;;;;8.20;6.60;;;2.50;99.90;;;;;;4997079;28;20479;-47
2021/01/17 13:27:46;;;;;;;16.50;7.10;;;2.50;99.90;;;;;;4997414;28;20450;-48
2021/01/17 13:30:13;;;;;;;13.27;8.57;;;2.40;99.90;;;;;;4996731;28;20455;-45
2021/01/17 13:32:41;;;;;;;13.20;7.97;;;2.40;99.90;;;;;;4999918;28;20466;-42
2021/01/17 13:35:09;;;;;;;11.83;7.80;;;2.40;99.90;;;;;;4999116;28;20450;-48
2021/01/17 13:37:35;;;;;;;15.20;7.77;;;2.40;99.90;;;;;;4993184;28;20489;-48
2021/01/17 13:40:03;;;;;;;14.30;9.20;;;2.40;99.90;;;;;;4987944;28;20505;-43
2021/01/17 13:42:29;;;;;;;19.63;8.70;;;2.40;99.90;;;;;;4996234;28;20567;-43
2021/01/17 13:44:57;;;;;;;15.20;9.50;;;2.40;99.90;;;;;;4999142;28;20512;-47
2021/01/17 13:47:25;;;;;;;13.00;8.70;;;2.40;99.90;;;;;;4998784;28;20431;-44
2021/01/17 13:49:55;;;;;;;13.47;7.00;;;2.40;99.90;;;;;;4990838;28;20455;-44
2021/01/17 13:52:21;;;;;;;13.70;8.00;;;2.50;99.90;;;;;;4986503;28;20533;-49
2021/01/17 13:54:48;;;;;;;12.63;8.53;;;2.50;99.90;;;;;;4986754;28;20462;-44
2021/01/17 13:57:14;;;;;;;10.80;7.40;;;2.40;99.90;;;;;;4997222;28;20483;-47
2021/01/17 13:59:41;;;;;;;13.60;8.30;;;2.40;99.90;;;;;;4997247;28;20976;-48
2021/01/17 14:02:09;;;;;;;17.00;8.50;;;2.40;99.90;;;;;;4987814;28;20462;-50
2021/01/17 14:04:35;;;;;;;10.77;7.67;;;2.50;99.90;;;;;;4985769;28;20461;-46
2021/01/17 14:07:03;;;;;;;14.60;7.07;;;2.50;99.90;;;;;;4986675;28;20463;-45
2021/01/17 14:09:29;;;;;;;14.97;8.63;;;2.50;99.90;;;;;;4986507;28;20435;-44
2021/01/17 14:11:56;;;;;;;19.50;9.13;;;2.60;99.90;;;;;;4988520;28;20462;-44
2021/01/17 14:14:23;;;;;;;23.60;10.13;;;2.60;99.90;;;;;;4988339;28;20948;-43
2021/01/17 14:16:51;;;;;;;17.30;9.67;;;2.60;99.90;;;;;;4985105;28;20647;-48
2021/01/17 14:19:21;;;;;;;16.20;7.77;;;2.60;99.90;;;;;;4993816;28;20447;-44
2021/01/17 14:21:48;;;;;;;14.47;9.50;;;2.60;99.90;;;;;;4995074;28;20442;-45
2021/01/17 14:24:16;;;;;;;12.40;7.57;;;2.50;99.90;;;;;;4998533;28;20485;-44
2021/01/17 14:26:42;;;;;;;14.27;9.10;;;2.60;99.90;;;;;;4996411;28;20458;-44
2021/01/17 14:29:11;;;;;;;14.60;9.00;;;2.60;99.90;;;;;;4994996;28;20487;-45
2021/01/17 14:31:39;;;;;;;16.10;7.70;;;2.60;99.90;;;;;;4995546;28;20467;-43
2021/01/17 14:34:06;;;;;;;15.60;8.73;;;2.50;99.90;;;;;;4996102;28;20443;-48
2021/01/17 14:36:34;;;;;;;16.63;8.70;;;2.50;99.90;;;;;;4995394;28;20458;-48
2021/01/17 14:39:01;;;;;;;16.20;7.97;;;2.50;99.90;;;;;;4995698;28;20443;-43
2021/01/17 14:41:28;;;;;;;15.77;9.67;;;2.40;99.90;;;;;;4994613;28;20470;-44
2021/01/17 14:43:55;;;;;;;17.30;9.67;;;2.40;99.90;;;;;;4995707;28;20447;-42
2021/01/17 14:46:22;;;;;;;14.23;7.97;;;2.30;99.90;;;;;;4995302;28;20454;-43
2021/01/17 14:48:48;;;;;;;16.30;9.63;;;2.30;99.90;;;;;;4996166;28;20462;-41
2021/01/17 14:51:20;;;;;;;12.23;8.07;;;2.30;99.90;;;;;;4995953;28;20481;-42
2021/01/17 14:53:47;;;;;;;16.03;9.03;;;2.30;99.90;;;;;;4998765;28;20463;-44
2021/01/17 14:56:14;;;;;;;16.83;7.80;;;2.20;99.90;;;;;;4995552;28;20447;-44
2021/01/17 14:58:42;;;;;;;23.30;12.27;;;2.10;99.90;;;;;;4997146;28;20498;-46
2021/01/17 15:01:19;;;;;;;17.13;9.07;;;2.10;99.90;;;;;;4983763;28;20497;-46
2021/01/17 15:03:47;;;;;;;18.00;9.70;;;2.20;99.90;;;;;;5008915;28;20461;-46
2021/01/17 15:06:20;;;;;;;16.67;9.73;;;2.20;99.90;;;;;;4999048;28;20478;-44
2021/01/17 15:08:47;;;;;;;13.83;7.90;;;2.20;99.90;;;;;;5003406;28;20458;-44
2021/01/17 15:11:17;;;;;;;17.53;9.17;;;2.20;99.90;;;;;;5000868;28;20439;-43
2021/01/17 15:13:44;;;;;;;15.07;6.97;;;2.20;99.90;;;;;;5003482;28;20446;-44
2021/01/17 15:16:11;;;;;;;13.53;6.70;;;2.20;99.90;;;;;;5003721;28;20455;-47
2021/01/17 15:18:37;;;;;;;11.00;7.53;;;2.20;99.90;;;;;;5004624;28;20970;-44
2021/01/17 15:21:04;;;;;;;18.50;10.50;;;2.10;99.90;;;;;;5006116;28;20439;-46
2021/01/17 15:23:31;;;;;;;13.67;8.60;;;2.10;99.90;;;;;;5004649;28;20447;-48
2021/01/17 15:25:58;;;;;;;20.77;9.40;;;2.10;99.90;;;;;;4995932;28;20451;-50
2021/01/17 15:28:24;;;;;;;15.60;7.47;;;2.10;99.90;;;;;;5008251;28;20455;-49
2021/01/17 15:30:52;;;;;;;13.40;8.07;;;2.00;99.90;;;;;;5004667;28;20443;-45
2021/01/17 15:33:19;;;;;;;12.43;6.83;;;2.00;99.90;;;;;;5006609;28;20450;-46
2021/01/17 15:35:46;;;;;;;11.87;6.30;;;2.00;99.90;;;;;;4998517;28;20450;-41
2021/01/17 15:38:12;;;;;;;17.77;9.37;;;2.00;99.90;;;;;;5010519;28;20482;-43
2021/01/17 15:40:41;;;;;;;11.53;6.73;;;2.10;99.90;;;;;;5002094;28;20453;-47
2021/01/17 15:43:08;;;;;;;19.53;9.67;;;2.00;99.90;;;;;;4984234;28;20439;-46
2021/01/17 15:45:34;;;;;;;14.93;8.00;;;2.10;99.90;;;;;;5007539;28;20442;-46
2021/01/17 15:48:03;;;;;;;15.83;8.13;;;2.10;99.90;;;;;;4996992;28;20450;-51
2021/01/17 15:50:30;;;;;;;14.03;8.67;;;2.10;99.90;;;;;;4994970;28;20438;-49
2021/01/17 15:52:56;;;;;;;15.73;8.83;;;2.10;99.90;;;;;;5000803;28;20450;-42
2021/01/17 15:55:23;;;;;;;11.90;7.77;;;2.10;99.90;;;;;;5011982;28;20450;-45
2021/01/17 15:57:53;;;;;;;12.33;7.03;;;2.10;99.90;;;;;;5001836;28;20984;-43
2021/01/17 16:00:20;;;;;;;10.20;6.83;;;2.10;99.90;;;;;;5004827;28;20466;-46
2021/01/17 16:02:46;;;;;;;13.60;7.40;;;2.10;99.90;;;;;;5014564;28;20488;-44
2021/01/17 16:05:15;;;;;;;19.60;9.60;;;2.00;99.90;;;;;;5012688;28;20474;-48
2021/01/17 16:07:47;;;;;;;18.47;8.17;;;2.00;99.90;;;;;;5001359;28;20513;-45
2021/01/17 16:10:14;;;;;;;13.80;8.10;;;2.00;99.90;;;;;;5011631;28;20437;-51
2021/01/17 16:12:40;;;;;;;18.47;8.70;;;2.00;99.90;;;;;;5016645;28;20430;-49
2021/01/17 16:15:08;;;;;;;14.83;7.17;;;2.00;99.90;;;;;;5018083;28;20453;-45
2021/01/17 16:17:39;;;;;;;15.10;8.13;;;2.00;99.90;;;;;;5017349;28;20507;-44
2021/01/17 16:20:07;;;;;;;13.20;7.27;;;2.00;99.90;;;;;;4997532;28;20434;-43
2021/01/17 16:22:35;;;;;;;21.20;8.70;;;2.00;99.90;;;;;;5015707;28;20438;-43
2021/01/17 16:25:02;;;;;;;16.40;8.13;;;1.90;99.90;;;;;;4999878;28;20447;-41
2021/01/17 16:27:28;;;;;;;20.60;7.63;;;1.90;99.90;;;;;;5013217;28;20446;-46
2021/01/17 16:29:55;;;;;;;16.17;7.63;;;1.90;99.90;;;;;;5007816;28;20438;-44
2021/01/17 16:32:27;;;;;;;15.43;9.30;;;1.90;99.90;;;;;;5003186;28;20449;-48
2021/01/17 16:34:54;;;;;;;19.43;7.73;;;1.90;99.90;;;;;;5003609;28;20454;-44
2021/01/17 16:37:26;;;;;;;16.63;9.87;;;1.80;99.90;;;;;;5011861;28;20480;-44
2021/01/17 16:39:56;;;;;;;14.97;8.20;;;1.80;99.90;;;;;;5010944;28;20453;-45
2021/01/17 16:42:23;;;;;;;13.77;8.30;;;1.80;99.90;;;;;;5009012;28;20439;-46
2021/01/17 16:44:51;;;;;;;17.83;7.90;;;1.80;99.90;;;;;;4983022;28;20472;-53
2021/01/17 16:47:17;;;;;;;13.33;8.07;;;1.80;99.90;;;;;;5000772;28;20525;-53
2021/01/17 16:49:47;;;;;;;23.70;10.60;;;1.80;99.90;;;;;;5004082;28;20446;-52
2021/01/17 16:52:14;;;;;;;14.93;8.50;;;1.80;99.90;;;;;;4999747;28;20442;-52
2021/01/17 16:54:43;;;;;;;22.50;9.60;;;1.80;99.90;;;;;;5005616;28;20443;-52
2021/01/17 16:57:12;;;;;;;14.40;9.27;;;1.70;99.90;;;;;;5014177;28;20470;-53
2021/01/17 16:59:39;;;;;;;18.63;10.87;;;1.70;99.90;;;;;;5007578;28;20453;-48
2021/01/17 17:02:05;;;;;;;16.67;8.73;;;1.70;99.90;;;;;;5014711;28;20497;-49
2021/01/17 17:04:34;;;;;;;16.40;10.50;;;1.70;99.90;;;;;;5014460;28;20434;-51
2021/01/17 17:07:03;;;;;;;20.50;8.27;;;1.60;99.90;;;;;;5018767;28;20486;-51
2021/01/17 17:09:30;;;;;;;12.80;8.23;;;1.60;99.90;;;;;;5005795;28;20467;-54
2021/01/17 17:11:57;;;;;;;15.10;7.40;;;1.60;99.90;;;;;;5005431;28;20464;-59
2021/01/17 17:14:24;;;;;;;19.40;10.93;;;1.60;99.90;;;;;;5008042;28;20510;-51
2021/01/17 17:16:51;;;;;;;16.57;9.67;;;1.50;99.90;;;;;;5007998;28;20438;-53
2021/01/17 17:19:17;;;;;;;11.90;7.63;;;1.50;99.90;;;;;;5003592;28;20427;-50
2021/01/17 17:21:44;;;;;;;15.63;8.03;;;1.50;99.90;;;;;;4992649;28;20446;-49
2021/01/17 17:24:12;;;;;;;21.30;9.47;;;1.50;99.90;;;;;;5002376;28;20458;-52
2021/01/17 17:26:40;;;;;;;16.30;7.93;;;1.50;99.90;;;;;;4999046;28;20447;-52
2021/01/17 17:29:08;;;;;;;11.07;6.17;;;1.70;99.90;;;;;;5006117;28;20444;-49
2021/01/17 17:31:42;;;;;;;11.10;7.10;;;1.70;99.90;;;;;;5004567;28;20438;-51
2021/01/17 17:34:09;;;;;;;9.70;6.30;;;1.60;99.90;;;;;;4998062;28;20442;-54
2021/01/17 17:36:36;;;;;;;14.70;8.97;;;1.60;99.90;;;;;;4997465;28;20505;-52
2021/01/17 17:39:03;;;;;;;13.30;8.20;;;1.70;99.90;;;;;;5002216;28;20447;-51
2021/01/17 17:41:30;;;;;;;12.27;8.30;;;1.60;99.90;;;;;;5007030;28;20446;-49
2021/01/17 17:43:56;;;;;;;23.60;12.83;;;1.60;99.90;;;;;;5004115;28;20474;-50
2021/01/17 17:46:24;;;;;;;16.90;10.20;;;1.50;99.90;;;;;;4998004;28;20470;-52
2021/01/17 17:48:52;;;;;;;9.87;6.90;;;1.50;99.90;;;;;;4998639;28;20641;-52
2021/01/17 17:51:19;;;;;;;12.23;7.40;;;1.50;99.90;;;;;;4996870;28;20477;-53
2021/01/17 17:53:46;;;;;;;11.87;7.03;;;1.50;99.90;;;;;;5004837;28;20450;-50
2021/01/17 17:56:14;;;;;;;12.40;8.07;;;1.50;99.90;;;;;;5005455;28;20438;-47
2021/01/17 17:58:41;;;;;;;18.10;8.83;;;1.50;99.90;;;;;;5002868;28;20486;-51
2021/01/17 18:01:08;;;;;;;19.10;8.53;;;1.50;99.90;;;;;;4995638;28;20471;-49
2021/01/17 18:03:34;;;;;;;19.40;11.03;;;1.40;99.90;;;;;;4997931;28;20442;-55
2021/01/17 18:06:03;;;;;;;14.47;8.50;;;1.40;99.90;;;;;;5018050;28;20465;-52
2021/01/17 18:08:31;;;;;;;17.57;9.50;;;1.40;99.90;;;;;;5011669;28;20895;-52
2021/01/17 18:10:59;;;;;;;14.87;8.17;;;1.30;99.90;;;;;;5011367;28;20429;-54
2021/01/17 18:13:25;;;;;;;14.70;8.60;;;1.30;99.90;;;;;;5003396;28;20462;-52
2021/01/17 18:15:52;;;;;;;11.40;7.43;;;1.30;99.90;;;;;;5015065;28;20446;-51
2021/01/17 18:18:19;;;;;;;17.57;10.97;;;1.60;99.90;;;;;;5007473;28;20542;-52
2021/01/17 18:20:46;;;;;;;11.80;8.33;;;1.60;99.90;;;;;;5010826;28;20498;-49
2021/01/17 18:23:14;;;;;;;14.80;9.13;;;1.50;99.90;;;;;;5001964;28;20454;-49
2021/01/17 18:25:43;;;;;;;14.23;9.20;;;1.40;99.90;;;;;;4999215;28;20461;-51
2021/01/17 18:28:10;;;;;;;17.40;9.50;;;1.30;99.90;;;;;;5003444;28;20550;-50
2021/01/17 18:30:37;;;;;;;15.67;8.63;;;1.20;99.90;;;;;;5007065;28;20466;-52
2021/01/17 18:33:03;;;;;;;12.43;8.00;;;1.20;99.90;;;;;;4993355;28;20482;-50
2021/01/17 18:35:30;;;;;;;15.13;8.73;;;1.10;99.90;;;;;;5007163;28;20445;-50
2021/01/17 18:37:59;;;;;;;14.83;7.93;;;1.10;99.90;;;;;;5002650;28;20514;-52
2021/01/17 18:40:27;;;;;;;16.23;9.23;;;1.10;99.90;;;;;;5006551;28;20473;-50
2021/01/17 18:42:54;;;;;;;13.93;8.60;;;1.20;99.90;;;;;;5002163;28;20457;-49
2021/01/17 18:45:20;;;;;;;15.70;9.63;;;1.30;99.90;;;;;;4999867;28;20827;-51
2021/01/17 18:47:47;;;;;;;21.70;10.83;;;1.30;99.90;;;;;;5000907;28;20427;-46
2021/01/17 18:50:15;;;;;;;18.60;11.23;;;1.20;99.90;;;;;;5005491;28;20477;-49
2021/01/17 18:52:42;;;;;;;16.77;9.67;;;1.20;99.90;;;;;;4999755;28;20497;-50
2021/01/17 18:55:10;;;;;;;13.57;9.67;;;1.10;99.90;;;;;;4999180;28;20506;-48
2021/01/17 18:57:40;;;;;;;18.87;8.67;;;1.00;99.90;;;;;;5008101;28;20489;-51
2021/01/17 19:00:16;;;;;;;16.90;8.80;;;1.00;99.90;;;;;;5002139;28;20458;-52
2021/01/17 19:02:42;;;;;;;19.10;8.97;;;1.00;99.90;;;;;;4999271;28;20440;-52
2021/01/17 19:05:10;;;;;;;18.47;9.20;;;1.00;99.90;;;;;;5017200;28;20490;-52
2021/01/17 19:07:36;;;;;;;20.03;9.77;;;1.00;99.90;;;;;;5016529;28;20438;-52
2021/01/17 19:10:04;;;;;;;25.80;15.33;;;1.00;99.90;;;;;;5003443;28;20457;-47
2021/01/17 19:12:31;;;;;;;20.03;11.43;;;1.00;99.90;;;;;;5010500;28;20494;-50
2021/01/17 19:14:58;;;;;;;15.03;8.60;;;1.00;99.90;;;;;;5007799;28;20530;-47
2021/01/17 19:17:25;;;;;;;15.53;9.17;;;1.00;99.90;;;;;;4994858;28;20479;-50
2021/01/17 19:19:52;;;;;;;13.03;8.90;;;1.00;99.90;;;;;;4992614;28;20458;-48
2021/01/17 19:22:19;;;;;;;15.93;9.90;;;1.00;99.90;;;;;;4995037;28;20481;-48
2021/01/17 19:24:50;;;;;;;22.80;9.37;;;0.90;99.90;;;;;;5008311;28;20462;-52
2021/01/17 19:27:17;;;;;;;16.70;9.80;;;0.90;99.90;;;;;;5007522;28;20473;-54
2021/01/17 19:29:43;;;;;;;42.63;19.67;;;0.90;99.90;;;;;;5010963;28;20446;-49
2021/01/17 19:32:11;;;;;;;17.57;9.40;;;0.90;99.90;;;;;;4998812;28;20447;-51
2021/01/17 19:34:38;;;;;;;20.03;9.60;;;0.90;99.90;;;;;;4981807;28;20454;-52
2021/01/17 19:37:06;;;;;;;14.07;10.03;;;0.80;99.90;;;;;;4976124;28;20474;-50
2021/01/17 19:39:33;;;;;;;12.43;8.43;;;0.70;99.90;;;;;;4973106;28;20467;-54
2021/01/17 19:41:59;;;;;;;20.50;10.93;;;0.70;99.90;;;;;;4989003;28;20544;-53
2021/01/17 19:44:26;;;;;;;18.27;11.40;;;0.70;99.90;;;;;;4972029;28;20972;-50
2021/01/17 19:46:53;;;;;;;17.70;10.70;;;0.70;99.90;;;;;;4975513;28;20467;-52
2021/01/17 19:49:21;;;;;;;15.70;9.97;;;0.60;99.90;;;;;;4980072;28;20527;-50
2021/01/17 19:51:51;;;;;;;16.40;9.47;;;0.60;99.90;;;;;;4995707;28;20920;-53
2021/01/17 19:54:20;;;;;;;15.40;9.73;;;0.60;99.90;;;;;;4983057;28;20470;-51
2021/01/17 19:56:48;;;;;;;16.50;9.30;;;0.60;99.90;;;;;;4999942;28;20461;-49